sensor_id;sensor_type;location;lat;lon;timestamp;pressure;altitude;pressure_sealevel;temperature;humidity
29569;BME280;16501;51.462;14.346;2022-09-23T00:00:41;100788.06;;;7.73;87.68
29569;BME280;16501;51.462;14.346;2022-09-23T00:03:08;100768.03;;;7.62;87.90
29569;BME280;16501;51.462;14.346;2022-09-23T00:05:34;100784.38;;;7.76;87.90
29569;BME280;16501;51.462;14.346;2022-09-23T00:08:01;100781.34;;;7.70;87.74
29569;BME280;16501;51.462;14.346;2022-09-23T00:10:27;100782.91;;;7.71;87.43
29569;BME280;16501;51.462;14.346;2022-09-23T00:12:55;100734.69;;;7.42;87.41
29569;BME280;16501;51.462;14.346;2022-09-23T00:15:22;100753.34;;;7.45;87.67
29569;BME280;16501;51.462;14.346;2022-09-23T00:17:50;100762.13;;;7.43;87.33
29569;BME280;16501;51.462;14.346;2022-09-23T00:20:15;100761.69;;;7.45;87.75
29569;BME280;16501;51.462;14.346;2022-09-23T00:22:41;100747.94;;;7.38;87.37
29569;BME280;16501;51.462;14.346;2022-09-23T00:25:08;100750.06;;;7.33;87.71
29569;BME280;16501;51.462;14.346;2022-09-23T00:27:35;100754.72;;;7.36;88.17
29569;BME280;16501;51.462;14.346;2022-09-23T00:30:02;100773.59;;;7.32;87.71
29569;BME280;16501;51.462;14.346;2022-09-23T00:32:29;100743.66;;;7.33;88.27
29569;BME280;16501;51.462;14.346;2022-09-23T00:34:54;100730.88;;;7.19;88.39
29569;BME280;16501;51.462;14.346;2022-09-23T00:37:19;100738.72;;;7.24;88.02
29569;BME280;16501;51.462;14.346;2022-09-23T00:39:45;100756.16;;;7.28;88.42
29569;BME280;16501;51.462;14.346;2022-09-23T00:42:14;100754.25;;;7.25;88.22
29569;BME280;16501;51.462;14.346;2022-09-23T00:47:23;100770.53;;;7.27;88.07
29569;BME280;16501;51.462;14.346;2022-09-23T00:52:38;100749.19;;;7.20;89.49
29569;BME280;16501;51.462;14.346;2022-09-23T00:55:07;100732.13;;;7.02;89.27
29569;BME280;16501;51.462;14.346;2022-09-23T00:57:35;100749.72;;;7.15;89.98
29569;BME280;16501;51.462;14.346;2022-09-23T01:00:04;100753.28;;;7.15;90.09
29569;BME280;16501;51.462;14.346;2022-09-23T01:02:30;100734.38;;;7.07;90.05
29569;BME280;16501;51.462;14.346;2022-09-23T01:04:57;100740.59;;;7.14;90.02
29569;BME280;16501;51.462;14.346;2022-09-23T01:07:23;100694.16;;;6.75;89.92
29569;BME280;16501;51.462;14.346;2022-09-23T01:09:48;100706.19;;;6.88;90.64
29569;BME280;16501;51.462;14.346;2022-09-23T01:12:21;100732.66;;;7.13;90.38
29569;BME280;16501;51.462;14.346;2022-09-23T01:20:02;100725.69;;;7.05;89.97
29569;BME280;16501;51.462;14.346;2022-09-23T01:31:25;100733.88;;;6.95;90.67
29569;BME280;16501;51.462;14.346;2022-09-23T01:33:57;100674.69;;;6.58;90.29
29569;BME280;16501;51.462;14.346;2022-09-23T01:36:34;100729.59;;;6.91;90.55
29569;BME280;16501;51.462;14.346;2022-09-23T01:39:10;100699.16;;;6.67;90.41
29569;BME280;16501;51.462;14.346;2022-09-23T01:42:38;100724.66;;;6.82;90.19
29569;BME280;16501;51.462;14.346;2022-09-23T01:45:32;100705.25;;;6.62;90.76
29569;BME280;16501;51.462;14.346;2022-09-23T01:48:11;100706.19;;;6.72;91.19
29569;BME280;16501;51.462;14.346;2022-09-23T01:50:49;100697.41;;;6.57;91.59
29569;BME280;16501;51.462;14.346;2022-09-23T01:56:31;100711.41;;;6.70;91.94
29569;BME280;16501;51.462;14.346;2022-09-23T01:59:09;100698.25;;;6.54;92.02
29569;BME280;16501;51.462;14.346;2022-09-23T02:01:42;100680.94;;;6.46;92.05
29569;BME280;16501;51.462;14.346;2022-09-23T02:04:35;100696.25;;;6.54;91.70
29569;BME280;16501;51.462;14.346;2022-09-23T02:07:40;100699.38;;;6.23;92.61
29569;BME280;16501;51.462;14.346;2022-09-23T02:10:26;100679.78;;;6.44;92.21
29569;BME280;16501;51.462;14.346;2022-09-23T02:12:56;100686.84;;;6.48;92.26
29569;BME280;16501;51.462;14.346;2022-09-23T02:15:29;100687.72;;;6.45;92.36
29569;BME280;16501;51.462;14.346;2022-09-23T02:18:01;100698.16;;;6.57;91.84
29569;BME280;16501;51.462;14.346;2022-09-23T02:20:32;100693.63;;;6.47;92.26
29569;BME280;16501;51.462;14.346;2022-09-23T02:23:02;100663.84;;;6.28;91.70
29569;BME280;16501;51.462;14.346;2022-09-23T02:25:45;100695.66;;;6.47;91.79
29569;BME280;16501;51.462;14.346;2022-09-23T02:28:18;100661.25;;;6.20;92.23
29569;BME280;16501;51.462;14.346;2022-09-23T02:31:06;100692.50;;;6.45;92.01
29569;BME280;16501;51.462;14.346;2022-09-23T02:33:36;100692.66;;;6.37;92.46
29569;BME280;16501;51.462;14.346;2022-09-23T02:36:16;100677.78;;;6.28;92.43
29569;BME280;16501;51.462;14.346;2022-09-23T02:38:48;100679.34;;;6.29;92.86
29569;BME280;16501;51.462;14.346;2022-09-23T02:41:23;100615.91;;;5.83;93.40
29569;BME280;16501;51.462;14.346;2022-09-23T02:44:14;100678.63;;;6.25;93.62
29569;BME280;16501;51.462;14.346;2022-09-23T02:46:42;100658.19;;;6.15;93.00
29569;BME280;16501;51.462;14.346;2022-09-23T02:49:11;100678.97;;;6.27;93.53
29569;BME280;16501;51.462;14.346;2022-09-23T02:51:39;100680.66;;;6.24;93.46
29569;BME280;16501;51.462;14.346;2022-09-23T02:54:06;100678.88;;;6.14;93.61
29569;BME280;16501;51.462;14.346;2022-09-23T02:56:34;100648.78;;;6.09;92.87
29569;BME280;16501;51.462;14.346;2022-09-23T02:59:00;100638.56;;;6.02;93.39
29569;BME280;16501;51.462;14.346;2022-09-23T03:01:41;100669.31;;;6.15;93.02
29569;BME280;16501;51.462;14.346;2022-09-23T03:04:22;100668.44;;;6.18;93.21
29569;BME280;16501;51.462;14.346;2022-09-23T03:07:13;100659.66;;;6.03;93.04
29569;BME280;16501;51.462;14.346;2022-09-23T03:15:19;100658.41;;;6.04;95.60
29569;BME280;16501;51.462;14.346;2022-09-23T03:17:55;100655.19;;;6.06;95.53
29569;BME280;16501;51.462;14.346;2022-09-23T03:20:34;100653.13;;;6.10;95.81
29569;BME280;16501;51.462;14.346;2022-09-23T03:23:05;100624.09;;;5.91;96.03
29569;BME280;16501;51.462;14.346;2022-09-23T03:25:35;100629.97;;;5.96;95.71
29569;BME280;16501;51.462;14.346;2022-09-23T03:28:02;100637.63;;;6.09;95.53
29569;BME280;16501;51.462;14.346;2022-09-23T03:30:30;100623.69;;;5.92;96.29
29569;BME280;16501;51.462;14.346;2022-09-23T03:32:59;100629.44;;;6.01;96.23
29569;BME280;16501;51.462;14.346;2022-09-23T03:35:27;100578.84;;;5.70;96.51
29569;BME280;16501;51.462;14.346;2022-09-23T03:38:11;100589.72;;;5.81;96.27
29569;BME280;16501;51.462;14.346;2022-09-23T03:40:42;100610.19;;;5.91;96.68
29569;BME280;16501;51.462;14.346;2022-09-23T03:43:11;100600.41;;;5.82;97.11
29569;BME280;16501;51.462;14.346;2022-09-23T03:45:38;100621.09;;;6.01;96.96
29569;BME280;16501;51.462;14.346;2022-09-23T03:48:05;100620.59;;;5.86;96.73
29569;BME280;16501;51.462;14.346;2022-09-23T03:50:31;100594.16;;;5.78;96.57
29569;BME280;16501;51.462;14.346;2022-09-23T03:52:56;100616.78;;;5.80;97.06
29569;BME280;16501;51.462;14.346;2022-09-23T03:55:22;100600.31;;;5.70;97.14
29569;BME280;16501;51.462;14.346;2022-09-23T03:57:47;100627.41;;;5.85;96.73
29569;BME280;16501;51.462;14.346;2022-09-23T04:00:13;100581.47;;;5.57;96.68
29569;BME280;16501;51.462;14.346;2022-09-23T04:02:40;100623.03;;;5.84;96.76
29569;BME280;16501;51.462;14.346;2022-09-23T04:05:07;100628.59;;;5.84;96.89
29569;BME280;16501;51.462;14.346;2022-09-23T04:07:33;100616.03;;;5.76;97.08
29569;BME280;16501;51.462;14.346;2022-09-23T04:09:58;100625.13;;;5.80;97.20
29569;BME280;16501;51.462;14.346;2022-09-23T04:12:24;100620.06;;;5.75;96.91
29569;BME280;16501;51.462;14.346;2022-09-23T04:14:50;100609.34;;;5.74;97.27
29569;BME280;16501;51.462;14.346;2022-09-23T04:17:15;100603.69;;;5.61;96.61
29569;BME280;16501;51.462;14.346;2022-09-23T04:19:41;100614.66;;;5.68;96.50
29569;BME280;16501;51.462;14.346;2022-09-23T04:22:07;100615.00;;;5.70;96.68
29569;BME280;16501;51.462;14.346;2022-09-23T04:24:33;100612.22;;;5.70;96.91
29569;BME280;16501;51.462;14.346;2022-09-23T04:26:59;100602.09;;;5.60;96.33
29569;BME280;16501;51.462;14.346;2022-09-23T04:29:25;100611.00;;;5.71;96.56
29569;BME280;16501;51.462;14.346;2022-09-23T04:31:53;100587.50;;;5.56;96.83
29569;BME280;16501;51.462;14.346;2022-09-23T04:34:19;100585.50;;;5.56;96.93
29569;BME280;16501;51.462;14.346;2022-09-23T04:36:45;100600.41;;;5.66;96.42
29569;BME280;16501;51.462;14.346;2022-09-23T04:39:12;100606.00;;;5.62;96.99
29569;BME280;16501;51.462;14.346;2022-09-23T04:41:38;100571.59;;;5.36;96.45
29569;BME280;16501;51.462;14.346;2022-09-23T04:44:03;100598.31;;;5.50;97.30
29569;BME280;16501;51.462;14.346;2022-09-23T04:47:05;100605.75;;;5.57;97.65
29569;BME280;16501;51.462;14.346;2022-09-23T04:49:30;100579.53;;;5.38;97.64
29569;BME280;16501;51.462;14.346;2022-09-23T04:51:57;100596.84;;;5.45;97.52
29569;BME280;16501;51.462;14.346;2022-09-23T04:54:22;100559.44;;;5.30;96.97
29569;BME280;16501;51.462;14.346;2022-09-23T04:56:48;100580.41;;;5.35;97.39
29569;BME280;16501;51.462;14.346;2022-09-23T04:59:13;100586.72;;;5.35;97.75
29569;BME280;16501;51.462;14.346;2022-09-23T05:01:38;100591.56;;;5.31;97.86
29569;BME280;16501;51.462;14.346;2022-09-23T05:04:06;100603.25;;;5.42;97.88
29569;BME280;16501;51.462;14.346;2022-09-23T05:06:33;100591.88;;;5.37;98.23
29569;BME280;16501;51.462;14.346;2022-09-23T05:09:02;100602.00;;;5.47;98.16
29569;BME280;16501;51.462;14.346;2022-09-23T05:11:29;100598.56;;;5.39;98.60
29569;BME280;16501;51.462;14.346;2022-09-23T05:13:55;100579.44;;;5.41;98.14
29569;BME280;16501;51.462;14.346;2022-09-23T05:16:22;100604.88;;;5.60;98.42
29569;BME280;16501;51.462;14.346;2022-09-23T05:18:49;100582.00;;;5.52;97.85
29569;BME280;16501;51.462;14.346;2022-09-23T05:21:19;100586.28;;;5.57;98.77
29569;BME280;16501;51.462;14.346;2022-09-23T05:23:53;100552.50;;;5.38;97.67
29569;BME280;16501;51.462;14.346;2022-09-23T05:26:20;100580.00;;;5.53;97.92
29569;BME280;16501;51.462;14.346;2022-09-23T05:28:47;100584.25;;;5.77;98.59
29569;BME280;16501;51.462;14.346;2022-09-23T05:31:18;100599.25;;;6.00;98.52
29569;BME280;16501;51.462;14.346;2022-09-23T05:33:45;100585.25;;;6.03;97.68
29569;BME280;16501;51.462;14.346;2022-09-23T05:36:11;100610.59;;;6.26;97.75
29569;BME280;16501;51.462;14.346;2022-09-23T05:38:37;100614.41;;;6.32;98.26
29569;BME280;16501;51.462;14.346;2022-09-23T05:41:06;100594.22;;;6.11;98.67
29569;BME280;16501;51.462;14.346;2022-09-23T05:43:33;100576.69;;;5.94;98.60
29569;BME280;16501;51.462;14.346;2022-09-23T05:46:05;100607.28;;;6.14;98.63
29569;BME280;16501;51.462;14.346;2022-09-23T05:48:31;100602.13;;;6.13;99.48
29569;BME280;16501;51.462;14.346;2022-09-23T05:50:58;100606.16;;;6.12;99.81
29569;BME280;16501;51.462;14.346;2022-09-23T05:53:24;100584.47;;;6.03;99.88
29569;BME280;16501;51.462;14.346;2022-09-23T05:55:50;100594.38;;;6.04;100.00
29569;BME280;16501;51.462;14.346;2022-09-23T05:58:15;100606.94;;;6.12;100.00
29569;BME280;16501;51.462;14.346;2022-09-23T06:00:42;100605.63;;;6.17;100.00
29569;BME280;16501;51.462;14.346;2022-09-23T06:03:12;100596.13;;;6.14;100.00
29569;BME280;16501;51.462;14.346;2022-09-23T06:05:37;100598.16;;;6.14;100.00
29569;BME280;16501;51.462;14.346;2022-09-23T06:08:05;100598.75;;;6.21;100.00
29569;BME280;16501;51.462;14.346;2022-09-23T06:10:35;100609.88;;;6.21;100.00
29569;BME280;16501;51.462;14.346;2022-09-23T06:13:01;100585.81;;;6.15;100.00
29569;BME280;16501;51.462;14.346;2022-09-23T06:15:26;100580.91;;;6.19;100.00
29569;BME280;16501;51.462;14.346;2022-09-23T06:17:51;100582.94;;;6.18;100.00
29569;BME280;16501;51.462;14.346;2022-09-23T06:20:17;100610.69;;;6.38;100.00
29569;BME280;16501;51.462;14.346;2022-09-23T06:22:42;100573.69;;;6.21;100.00
29569;BME280;16501;51.462;14.346;2022-09-23T06:25:08;100578.22;;;6.32;100.00
29569;BME280;16501;51.462;14.346;2022-09-23T06:27:33;100592.16;;;6.48;100.00
29569;BME280;16501;51.462;14.346;2022-09-23T06:29:58;100592.28;;;6.57;100.00
29569;BME280;16501;51.462;14.346;2022-09-23T06:32:23;100589.78;;;6.47;100.00
29569;BME280;16501;51.462;14.346;2022-09-23T06:34:50;100560.88;;;6.40;100.00
29569;BME280;16501;51.462;14.346;2022-09-23T06:37:15;100591.78;;;6.63;100.00
29569;BME280;16501;51.462;14.346;2022-09-23T06:39:41;100587.72;;;6.80;100.00
29569;BME280;16501;51.462;14.346;2022-09-23T06:42:06;100595.22;;;6.83;100.00
29569;BME280;16501;51.462;14.346;2022-09-23T06:44:32;100578.00;;;6.72;100.00
29569;BME280;16501;51.462;14.346;2022-09-23T06:46:57;100573.22;;;6.72;100.00
29569;BME280;16501;51.462;14.346;2022-09-23T06:49:22;100596.88;;;7.10;100.00
29569;BME280;16501;51.462;14.346;2022-09-23T06:51:48;100597.72;;;7.23;100.00
29569;BME280;16501;51.462;14.346;2022-09-23T06:54:13;100603.44;;;7.45;100.00
29569;BME280;16501;51.462;14.346;2022-09-23T06:56:43;100583.47;;;7.47;100.00
29569;BME280;16501;51.462;14.346;2022-09-23T06:59:11;100609.19;;;7.80;100.00
29569;BME280;16501;51.462;14.346;2022-09-23T07:01:39;100549.59;;;7.61;100.00
29569;BME280;16501;51.462;14.346;2022-09-23T07:04:04;100612.81;;;8.06;100.00
29569;BME280;16501;51.462;14.346;2022-09-23T07:06:31;100608.66;;;8.11;100.00
29569;BME280;16501;51.462;14.346;2022-09-23T07:08:57;100569.56;;;7.98;100.00
29569;BME280;16501;51.462;14.346;2022-09-23T07:11:22;100576.59;;;8.16;100.00
29569;BME280;16501;51.462;14.346;2022-09-23T07:13:47;100574.78;;;8.35;100.00
29569;BME280;16501;51.462;14.346;2022-09-23T07:16:13;100599.28;;;8.43;100.00
29569;BME280;16501;51.462;14.346;2022-09-23T07:18:38;100597.66;;;8.68;100.00
29569;BME280;16501;51.462;14.346;2022-09-23T07:21:16;100577.75;;;8.66;100.00
29569;BME280;16501;51.462;14.346;2022-09-23T07:23:43;100608.03;;;9.02;100.00
29569;BME280;16501;51.462;14.346;2022-09-23T07:26:09;100599.97;;;9.04;100.00
29569;BME280;16501;51.462;14.346;2022-09-23T07:28:35;100604.16;;;9.22;100.00
29569;BME280;16501;51.462;14.346;2022-09-23T07:31:05;100606.56;;;9.33;100.00
29569;BME280;16501;51.462;14.346;2022-09-23T07:33:33;100594.31;;;9.17;100.00
29569;BME280;16501;51.462;14.346;2022-09-23T07:36:03;100605.25;;;9.24;100.00
29569;BME280;16501;51.462;14.346;2022-09-23T07:38:29;100607.84;;;9.41;100.00
29569;BME280;16501;51.462;14.346;2022-09-23T07:41:06;100618.19;;;9.53;100.00
29569;BME280;16501;51.462;14.346;2022-09-23T07:43:33;100613.91;;;9.61;100.00
29569;BME280;16501;51.462;14.346;2022-09-23T07:46:00;100584.16;;;9.55;100.00
29569;BME280;16501;51.462;14.346;2022-09-23T07:48:28;100609.50;;;9.82;100.00
29569;BME280;16501;51.462;14.346;2022-09-23T07:50:54;100585.56;;;9.59;100.00
29569;BME280;16501;51.462;14.346;2022-09-23T07:53:20;100617.47;;;9.93;100.00
29569;BME280;16501;51.462;14.346;2022-09-23T07:55:51;100598.16;;;9.86;100.00
29569;BME280;16501;51.462;14.346;2022-09-23T07:58:16;100574.59;;;9.74;100.00
29569;BME280;16501;51.462;14.346;2022-09-23T08:00:42;100585.09;;;9.92;100.00
29569;BME280;16501;51.462;14.346;2022-09-23T08:03:07;100615.69;;;10.09;100.00
29569;BME280;16501;51.462;14.346;2022-09-23T08:05:33;100608.81;;;10.10;100.00
29569;BME280;16501;51.462;14.346;2022-09-23T08:07:58;100619.41;;;10.15;100.00
29569;BME280;16501;51.462;14.346;2022-09-23T08:10:23;100597.28;;;10.08;100.00
29569;BME280;16501;51.462;14.346;2022-09-23T08:12:49;100586.72;;;10.12;100.00
29569;BME280;16501;51.462;14.346;2022-09-23T08:15:14;100578.56;;;9.95;99.76
29569;BME280;16501;51.462;14.346;2022-09-23T08:17:41;100621.06;;;10.34;100.00
29569;BME280;16501;51.462;14.346;2022-09-23T08:20:06;100587.06;;;10.23;100.00
29569;BME280;16501;51.462;14.346;2022-09-23T08:22:32;100616.59;;;10.46;100.00
29569;BME280;16501;51.462;14.346;2022-09-23T08:24:58;100606.84;;;10.69;100.00
29569;BME280;16501;51.462;14.346;2022-09-23T08:27:24;100590.00;;;10.69;99.19
29569;BME280;16501;51.462;14.346;2022-09-23T08:29:52;100590.31;;;10.81;98.50
29569;BME280;16501;51.462;14.346;2022-09-23T08:32:17;100610.88;;;11.05;99.10
29569;BME280;16501;51.462;14.346;2022-09-23T08:34:42;100567.41;;;11.01;97.28
29569;BME280;16501;51.462;14.346;2022-09-23T08:37:09;100588.75;;;11.26;96.96
29569;BME280;16501;51.462;14.346;2022-09-23T08:39:35;100561.75;;;11.28;96.75
29569;BME280;16501;51.462;14.346;2022-09-23T08:42:21;100611.84;;;11.82;96.27
29569;BME280;16501;51.462;14.346;2022-09-23T08:44:54;100586.31;;;11.70;94.32
29569;BME280;16501;51.462;14.346;2022-09-23T08:47:41;100580.00;;;11.85;94.12
29569;BME280;16501;51.462;14.346;2022-09-23T08:50:21;100614.72;;;12.15;93.25
29569;BME280;16501;51.462;14.346;2022-09-23T08:52:50;100589.13;;;12.13;91.87
29569;BME280;16501;51.462;14.346;2022-09-23T08:55:18;100606.69;;;12.32;90.87
29569;BME280;16501;51.462;14.346;2022-09-23T08:57:57;100587.47;;;12.31;89.81
29569;BME280;16501;51.462;14.346;2022-09-23T09:00:33;100600.81;;;12.45;90.09
29569;BME280;16501;51.462;14.346;2022-09-23T09:03:07;100586.88;;;12.51;88.42
29569;BME280;16501;51.462;14.346;2022-09-23T09:05:40;100607.75;;;12.83;87.89
29569;BME280;16501;51.462;14.346;2022-09-23T09:08:08;100566.28;;;12.69;87.22
29569;BME280;16501;51.462;14.346;2022-09-23T09:10:40;100595.66;;;12.92;83.85
29569;BME280;16501;51.462;14.346;2022-09-23T09:13:34;100600.16;;;13.13;83.61
29569;BME280;16501;51.462;14.346;2022-09-23T09:16:33;100597.06;;;13.26;85.10
29569;BME280;16501;51.462;14.346;2022-09-23T09:19:19;100580.47;;;13.28;84.20
29569;BME280;16501;51.462;14.346;2022-09-23T09:21:47;100578.09;;;13.36;82.80
29569;BME280;16501;51.462;14.346;2022-09-23T09:24:31;100557.88;;;13.37;80.40
29569;BME280;16501;51.462;14.346;2022-09-23T09:27:00;100566.59;;;13.54;78.87
29569;BME280;16501;51.462;14.346;2022-09-23T09:29:37;100571.28;;;13.72;81.48
29569;BME280;16501;51.462;14.346;2022-09-23T09:32:15;100567.84;;;13.83;78.72
29569;BME280;16501;51.462;14.346;2022-09-23T09:34:49;100564.84;;;13.87;79.38
